createdAt,value
2023-01-26T00:01:10.095Z,95705.06
2023-01-26T00:03:55.705Z,95706.13
2023-01-26T00:06:41.225Z,95707.72
2023-01-26T00:09:26.502Z,95706.91
2023-01-26T00:12:12.259Z,95704.53
2023-01-26T00:14:57.893Z,95693.84
2023-01-26T00:17:43.489Z,95695.41
2023-01-26T00:20:29.335Z,95695.72
2023-01-26T00:23:14.959Z,95694.66
2023-01-26T00:26:01.111Z,95700.56
2023-01-26T00:28:47.153Z,95698.13
2023-01-26T00:31:33.948Z,95687.94
2023-01-26T00:34:19.430Z,95691.69
2023-01-26T00:37:05.101Z,95695.97
2023-01-26T00:39:50.472Z,95682.03
2023-01-26T00:42:36.299Z,95666.53
2023-01-26T00:45:22.107Z,95674.78
2023-01-26T00:48:07.605Z,95669.69
2023-01-26T00:50:53.156Z,95667.03
2023-01-26T00:53:38.634Z,95665.72
2023-01-26T00:56:28.323Z,95649.94
2023-01-26T00:59:19.534Z,95639.22
2023-01-26T01:02:05.370Z,95639.50
2023-01-26T01:04:51.621Z,95634.16
2023-01-26T01:07:37.825Z,95627.44
2023-01-26T01:10:24.838Z,95633.31
2023-01-26T01:13:12.342Z,95633.31
2023-01-26T01:15:59.268Z,95640.53
2023-01-26T01:18:44.900Z,95639.19
2023-01-26T01:21:32.068Z,95635.47
2023-01-26T01:24:17.994Z,95625.81
2023-01-26T01:27:03.766Z,95637.88
2023-01-26T01:29:52.591Z,95639.19
2023-01-26T01:32:39.945Z,95636.53
2023-01-26T01:35:25.977Z,95644.53
2023-01-26T01:38:11.365Z,95635.97
2023-01-26T01:40:57.286Z,95635.97
2023-01-26T01:43:43.065Z,95630.63
2023-01-26T01:46:31.984Z,95620.44
2023-01-26T01:49:21.137Z,95609.75
2023-01-26T01:52:14.471Z,95604.38
2023-01-26T01:55:07.415Z,95596.63
2023-01-26T01:57:53.946Z,95588.84
2023-01-26T02:00:40.312Z,95588.84
2023-01-26T02:03:27.062Z,95579.78
2023-01-26T02:06:13.546Z,95576.03
2023-01-26T02:08:59.095Z,95583.00
2023-01-26T02:11:48.838Z,95573.38
2023-01-26T02:14:34.815Z,95572.31
2023-01-26T02:17:28.453Z,95571.50
2023-01-26T02:20:14.164Z,95553.88
2023-01-26T02:22:59.912Z,95554.91
2023-01-26T02:25:52.856Z,95553.56
2023-01-26T02:28:39.090Z,95544.75
2023-01-26T02:31:25.058Z,95547.16
2023-01-26T02:34:11.742Z,95548.78
2023-01-26T02:36:58.483Z,95548.78
2023-01-26T02:40:03.822Z,95546.66
2023-01-26T02:42:49.476Z,95550.38
2023-01-26T02:45:35.141Z,95539.69
2023-01-26T02:48:39.459Z,95535.97
2023-01-26T02:51:25.296Z,95534.91
2023-01-26T02:54:31.952Z,95539.69
2023-01-26T02:57:18.632Z,95534.56
2023-01-26T03:00:05.627Z,95538.84
2023-01-26T03:02:51.655Z,95536.44
2023-01-26T03:05:37.483Z,95536.94
2023-01-26T03:08:23.242Z,95536.66
2023-01-26T03:11:08.907Z,95531.88
2023-01-26T03:13:54.384Z,95528.34
2023-01-26T03:16:39.883Z,95519.78
2023-01-26T03:19:58.970Z,95519.22
2023-01-26T03:23:03.499Z,95519.22
2023-01-26T03:26:07.907Z,95513.38
2023-01-26T03:28:53.960Z,95508.59
2023-01-26T03:31:40.480Z,95499.78
2023-01-26T03:34:26.875Z,95492.53
2023-01-26T03:37:12.629Z,95480.75
2023-01-26T03:40:31.725Z,95475.97
2023-01-26T03:43:37.733Z,95477.56
2023-01-26T03:46:42.387Z,95479.69
2023-01-26T03:49:49.230Z,95473.28
2023-01-26T03:52:54.237Z,95477.56
2023-01-26T03:55:58.926Z,95466.34
2023-01-26T03:58:51.955Z,95459.94
2023-01-26T04:01:40.891Z,95461.31
2023-01-26T04:04:45.163Z,95473.06
2023-01-26T04:07:49.465Z,95468.00
2023-01-26T04:10:35.660Z,95462.41
2023-01-26T04:13:41.888Z,95465.31
2023-01-26T04:16:49.199Z,95470.66
2023-01-26T04:19:54.134Z,95466.63
2023-01-26T04:22:44.598Z,95458.88
2023-01-26T04:25:31.753Z,95449.00
2023-01-26T04:28:17.426Z,95444.47
2023-01-26T04:31:04.858Z,95451.38
2023-01-26T04:33:54.232Z,95451.66
2023-01-26T04:36:40.188Z,95449.78
2023-01-26T04:39:26.347Z,95442.84
2023-01-26T04:42:15.702Z,95438.56
2023-01-26T04:45:01.309Z,95441.69
2023-01-26T04:47:47.782Z,95455.03
2023-01-26T04:50:36.393Z,95448.09
2023-01-26T04:53:22.170Z,95436.59
2023-01-26T04:56:09.455Z,95440.03
2023-01-26T04:58:55.478Z,95436.56
2023-01-26T05:01:42.622Z,95428.81
2023-01-26T05:04:29.337Z,95426.69
2023-01-26T05:07:15.689Z,95412.28
2023-01-26T05:10:02.949Z,95412.84
2023-01-26T05:13:08.901Z,95414.97
2023-01-26T05:16:14.497Z,95420.53
2023-01-26T05:19:20.586Z,95428.28
2023-01-26T05:22:36.456Z,95422.97
2023-01-26T05:25:41.597Z,95426.09
2023-01-26T05:28:29.850Z,95428.25
2023-01-26T05:31:15.857Z,95427.44
2023-01-26T05:34:02.104Z,95417.56
2023-01-26T05:36:48.326Z,95420.25
2023-01-26T05:39:33.961Z,95417.56
2023-01-26T05:42:21.306Z,95423.44
2023-01-26T05:45:20.827Z,95424.78
2023-01-26T05:48:08.923Z,95428.81
2023-01-26T05:50:55.603Z,95429.59
2023-01-26T05:53:41.206Z,95425.06
2023-01-26T05:56:27.465Z,95418.13
2023-01-26T05:59:18.135Z,95416.53
2023-01-26T06:02:05.115Z,95425.59
2023-01-26T06:04:52.513Z,95425.59
2023-01-26T06:07:38.386Z,95427.72
2023-01-26T06:10:36.030Z,95416.50
2023-01-26T06:13:33.617Z,95412.25
2023-01-26T06:16:28.114Z,95411.69
2023-01-26T06:19:16.030Z,95414.34
2023-01-26T06:22:09.238Z,95406.84
2023-01-26T06:24:56.629Z,95420.75
2023-01-26T06:27:42.475Z,95418.09
2023-01-26T06:30:43.739Z,95414.91
2023-01-26T06:33:35.054Z,95422.38
2023-01-26T06:36:21.064Z,95408.53
2023-01-26T06:39:07.785Z,95406.94
2023-01-26T06:41:53.961Z,95413.34
2023-01-26T06:44:39.549Z,95404.28
2023-01-26T06:47:26.511Z,95410.19
2023-01-26T06:50:12.577Z,95410.72
2023-01-26T06:53:01.489Z,95405.94
2023-01-26T06:56:04.310Z,95392.59
2023-01-26T06:58:53.566Z,95393.41
2023-01-26T07:02:19.023Z,95390.97
2023-01-26T07:05:05.048Z,95376.59
2023-01-26T07:07:51.778Z,95381.38
2023-01-26T07:10:37.981Z,95372.59
2023-01-26T07:13:24.170Z,95371.81
2023-01-26T07:16:11.338Z,95369.66
2023-01-26T07:18:57.879Z,95365.97
2023-01-26T07:21:43.927Z,95361.72
2023-01-26T07:24:29.804Z,95364.63
2023-01-26T07:27:16.323Z,95367.34
2023-01-26T07:30:02.176Z,95368.69
2023-01-26T07:32:47.735Z,95371.88
2023-01-26T07:35:33.218Z,95373.47
2023-01-26T07:38:19.280Z,95369.75
2023-01-26T07:41:06.175Z,95367.06
2023-01-26T07:43:52.254Z,95366.53
2023-01-26T07:46:38.494Z,95365.22
2023-01-26T07:49:25.247Z,95365.47
2023-01-26T07:52:10.835Z,95356.41
2023-01-26T07:54:56.604Z,95353.72
2023-01-26T07:57:42.146Z,95357.47
2023-01-26T08:00:27.862Z,95362.28
2023-01-26T08:03:14.016Z,95361.22
2023-01-26T08:06:00.724Z,95355.34
2023-01-26T08:08:50.987Z,95349.22
2023-01-26T08:11:36.746Z,95363.38
2023-01-26T08:14:22.529Z,95355.91
2023-01-26T08:17:08.044Z,95364.19
2023-01-26T08:19:53.874Z,95368.72
2023-01-26T08:22:39.310Z,95366.56
2023-01-26T08:25:24.943Z,95364.69
2023-01-26T08:28:10.497Z,95361.22
2023-01-26T08:30:56.670Z,95364.69
2023-01-26T08:33:44.057Z,95356.94
2023-01-26T08:36:29.698Z,95367.63
2023-01-26T08:39:15.077Z,95367.09
2023-01-26T08:42:00.787Z,95357.47
2023-01-26T08:44:46.480Z,95363.06
2023-01-26T08:47:31.966Z,95362.81
2023-01-26T08:50:17.680Z,95363.88
2023-01-26T08:53:03.111Z,95364.69
2023-01-26T08:55:48.758Z,95359.34
2023-01-26T08:58:34.961Z,95352.94
2023-01-26T09:01:20.386Z,95347.34
2023-01-26T09:04:06.404Z,95350.53
2023-01-26T09:06:51.967Z,95341.44
2023-01-26T09:09:37.853Z,95335.59
2023-01-26T09:12:23.644Z,95341.22
2023-01-26T09:15:09.434Z,95346.78
2023-01-26T09:17:55.469Z,95324.09
2023-01-26T09:20:40.890Z,95322.78
2023-01-26T09:23:28.784Z,95329.19
2023-01-26T09:26:14.487Z,95307.81
2023-01-26T09:29:39.008Z,95296.06
2023-01-26T09:32:24.743Z,95290.72
2023-01-26T09:35:14.151Z,95275.75
2023-01-26T09:38:11.085Z,95275.75
2023-01-26T09:41:15.316Z,95273.09
2023-01-26T09:44:33.756Z,95264.81
2023-01-26T09:47:22.141Z,95274.16
2023-01-26T09:50:11.359Z,95274.41
2023-01-26T09:53:06.373Z,95261.84
2023-01-26T09:55:51.786Z,95259.16
2023-01-26T09:58:40.786Z,95256.47
2023-01-26T10:01:35.638Z,95260.72
2023-01-26T10:04:33.899Z,95257.00
2023-01-26T10:07:19.437Z,95258.06
2023-01-26T10:10:09.673Z,95256.72
2023-01-26T10:12:55.070Z,95253.78
2023-01-26T10:15:43.364Z,95245.25
2023-01-26T10:18:32.779Z,95244.16
2023-01-26T10:21:18.993Z,95242.56
2023-01-26T10:24:05.833Z,95230.28
2023-01-26T10:26:53.189Z,95220.38
2023-01-26T10:29:43.063Z,95221.75
2023-01-26T10:32:28.767Z,95208.91
2023-01-26T10:35:19.909Z,95202.50
2023-01-26T10:38:26.041Z,95196.59
2023-01-26T10:41:14.561Z,95186.97
2023-01-26T10:44:00.275Z,95194.97
2023-01-26T10:46:45.561Z,95197.09
2023-01-26T10:49:31.481Z,95195.97
2023-01-26T10:52:17.866Z,95193.28
2023-01-26T10:55:11.493Z,95179.88
2023-01-26T10:57:57.347Z,95170.25
2023-01-26T11:00:43.235Z,95162.75
2023-01-26T11:03:28.933Z,95170.47
2023-01-26T11:06:15.323Z,95166.94
2023-01-26T11:09:20.932Z,95161.56
2023-01-26T11:12:06.433Z,95159.31
2023-01-26T11:15:12.781Z,95157.94
2023-01-26T11:17:59.297Z,95147.22
2023-01-26T11:20:48.023Z,95144.78
2023-01-26T11:23:45.898Z,95134.63
2023-01-26T11:26:51.337Z,95118.00
2023-01-26T11:29:45.902Z,95121.25
2023-01-26T11:32:43.900Z,95112.66
2023-01-26T11:35:29.674Z,95104.06
2023-01-26T11:38:31.156Z,95103.50
2023-01-26T11:41:19.607Z,95089.03
2023-01-26T11:44:17.513Z,95087.69
2023-01-26T11:47:15.710Z,95089.81
2023-01-26T11:50:01.255Z,95089.53
2023-01-26T11:53:05.800Z,95082.78
2023-01-26T11:55:54.595Z,95077.16
2023-01-26T11:58:55.103Z,95079.28
2023-01-26T12:01:42.219Z,95067.47
2023-01-26T12:04:33.226Z,95064.81
2023-01-26T12:07:31.512Z,95063.22
2023-01-26T12:10:46.673Z,95064.81
2023-01-26T12:13:36.295Z,95057.28
2023-01-26T12:16:25.408Z,95062.06
2023-01-26T12:19:19.259Z,95060.97
2023-01-26T12:22:16.486Z,95056.16
2023-01-26T12:25:25.839Z,95053.47
2023-01-26T12:28:13.531Z,95055.13
2023-01-26T12:31:04.794Z,95052.72
2023-01-26T12:33:54.154Z,95042.88
2023-01-26T12:37:03.531Z,95046.09
2023-01-26T12:40:19.072Z,95039.13
2023-01-26T12:43:20.595Z,95038.13
2023-01-26T12:46:06.255Z,95049.41
2023-01-26T12:48:55.863Z,95045.69
2023-01-26T12:51:42.438Z,95040.38
2023-01-26T12:54:58.436Z,95044.66
2023-01-26T12:57:49.813Z,95027.59
2023-01-26T13:00:36.846Z,95022.22
2023-01-26T13:03:28.192Z,95013.69
2023-01-26T13:06:13.679Z,95005.13
2023-01-26T13:09:00.616Z,95007.28
2023-01-26T13:11:52.627Z,95002.50
2023-01-26T13:14:51.213Z,95005.47
2023-01-26T13:17:59.264Z,95001.19
2023-01-26T13:20:44.828Z,94996.91
2023-01-26T13:23:40.819Z,94997.75
2023-01-26T13:26:32.408Z,94996.44
2023-01-26T13:29:27.561Z,94994.06
2023-01-26T13:32:13.213Z,94992.97
2023-01-26T13:34:59.967Z,94992.97
2023-01-26T13:37:58.121Z,94994.06
2023-01-26T13:40:50.003Z,94988.41
2023-01-26T13:43:40.832Z,94993.53
2023-01-26T13:46:29.322Z,94989.81
2023-01-26T13:49:49.504Z,94990.94
2023-01-26T13:52:35.129Z,94985.63
2023-01-26T13:55:26.893Z,94993.13
2023-01-26T13:58:14.078Z,94980.91
2023-01-26T14:01:00.928Z,94990.53
2023-01-26T14:03:47.744Z,94991.66
2023-01-26T14:06:33.922Z,94989.03
2023-01-26T14:09:20.052Z,94986.94
2023-01-26T14:12:05.863Z,94985.31
2023-01-26T14:14:52.007Z,94980.00
2023-01-26T14:17:46.543Z,94979.75
2023-01-26T14:20:33.648Z,94966.16
2023-01-26T14:23:19.438Z,94974.19
2023-01-26T14:26:34.540Z,94962.91
2023-01-26T14:29:23.600Z,94965.03
2023-01-26T14:32:13.950Z,94962.88
2023-01-26T14:35:00.698Z,94959.16
2023-01-26T14:37:46.549Z,94957.56
2023-01-26T14:40:31.926Z,94970.72
2023-01-26T14:43:17.699Z,94951.03
2023-01-26T14:46:04.606Z,94954.03
2023-01-26T14:48:56.373Z,94962.13
2023-01-26T14:51:43.653Z,94955.50
2023-01-26T14:54:32.828Z,94955.81
2023-01-26T14:57:19.318Z,94956.94
2023-01-26T15:00:09.999Z,94947.13
2023-01-26T15:02:56.236Z,94957.03
2023-01-26T15:05:42.334Z,94957.03
2023-01-26T15:08:28.201Z,94951.75
2023-01-26T15:11:32.381Z,94954.94
2023-01-26T15:14:24.176Z,94964.06
2023-01-26T15:17:32.905Z,94965.66
2023-01-26T15:20:19.182Z,94964.31
2023-01-26T15:23:27.474Z,94957.63
2023-01-26T15:26:14.679Z,94951.47
2023-01-26T15:29:18.135Z,94958.94
2023-01-26T15:32:04.200Z,94958.63
2023-01-26T15:35:03.419Z,94954.38
2023-01-26T15:37:49.067Z,94953.78
2023-01-26T15:40:39.773Z,94957.53
2023-01-26T15:43:25.484Z,94952.72
2023-01-26T15:46:11.015Z,94953.78
2023-01-26T15:49:02.380Z,94947.91
2023-01-26T15:51:48.189Z,94950.59
2023-01-26T15:54:33.654Z,94944.72
2023-01-26T15:57:19.675Z,94943.13
2023-01-26T16:00:07.701Z,94933.00
2023-01-26T16:02:53.368Z,94934.63
2023-01-26T16:05:38.860Z,94933.56
2023-01-26T16:08:24.663Z,94933.81
2023-01-26T16:11:11.990Z,94936.22
2023-01-26T16:14:03.693Z,94937.88
2023-01-26T16:16:49.949Z,94941.06
2023-01-26T16:19:35.936Z,94936.25
2023-01-26T16:22:21.591Z,94931.19
2023-01-26T16:25:22.516Z,94930.94
2023-01-26T16:28:08.263Z,94923.47
2023-01-26T16:30:54.116Z,94922.91
2023-01-26T16:33:44.037Z,94922.38
2023-01-26T16:36:30.621Z,94919.41
2023-01-26T16:39:16.719Z,94914.34
2023-01-26T16:42:05.784Z,94915.94
2023-01-26T16:44:51.700Z,94919.13
2023-01-26T16:47:38.591Z,94921.25
2023-01-26T16:50:24.916Z,94913.75
2023-01-26T16:53:25.198Z,94901.47
2023-01-26T16:56:11.411Z,94903.06
2023-01-26T16:58:57.361Z,94899.31
2023-01-26T17:01:42.908Z,94907.06
2023-01-26T17:04:28.903Z,94899.31
2023-01-26T17:07:14.359Z,94894.00
2023-01-26T17:10:00.071Z,94892.94
2023-01-26T17:12:45.480Z,94895.06
2023-01-26T17:15:31.419Z,94897.78
2023-01-26T17:18:17.247Z,94897.53
2023-01-26T17:21:03.343Z,94888.19
2023-01-26T17:23:49.839Z,94891.94
2023-01-26T17:26:35.568Z,94891.94
2023-01-26T17:29:21.229Z,94891.94
2023-01-26T17:32:06.855Z,94898.88
2023-01-26T17:34:52.837Z,94892.19
2023-01-26T17:37:39.565Z,94890.84
2023-01-26T17:40:26.740Z,94889.50
2023-01-26T17:43:12.236Z,94888.94
2023-01-26T17:46:01.449Z,94890.25
2023-01-26T17:48:47.873Z,94892.38
2023-01-26T17:51:33.802Z,94890.25
2023-01-26T17:54:20.169Z,94887.31
2023-01-26T17:57:06.492Z,94881.72
2023-01-26T17:59:51.887Z,94882.25
2023-01-26T18:02:37.758Z,94886.56
2023-01-26T18:05:23.419Z,94880.69
2023-01-26T18:08:09.149Z,94877.50
2023-01-26T18:10:59.101Z,94890.59
2023-01-26T18:13:44.697Z,94879.09
2023-01-26T18:16:30.315Z,94883.38
2023-01-26T18:19:16.385Z,94875.38
2023-01-26T18:22:02.303Z,94867.91
2023-01-26T18:24:48.100Z,94871.63
2023-01-26T18:27:33.602Z,94878.84
2023-01-26T18:30:19.533Z,94869.00
2023-01-26T18:33:04.962Z,94873.28
2023-01-26T18:35:50.607Z,94872.50
2023-01-26T18:38:36.215Z,94870.13
2023-01-26T18:41:22.564Z,94872.81
2023-01-26T18:44:08.400Z,94857.38
2023-01-26T18:46:53.990Z,94855.81
2023-01-26T18:49:39.777Z,94856.09
2023-01-26T18:52:25.461Z,94867.31
2023-01-26T18:55:11.829Z,94852.94
2023-01-26T18:57:57.461Z,94865.50
2023-01-26T19:00:43.469Z,94864.69
2023-01-26T19:03:29.658Z,94861.75
2023-01-26T19:06:19.844Z,94868.69
2023-01-26T19:09:06.835Z,94847.94
2023-01-26T19:11:52.355Z,94858.06
2023-01-26T19:14:37.923Z,94861.25
2023-01-26T19:17:23.392Z,94868.75
2023-01-26T19:20:09.740Z,94870.88
2023-01-26T19:22:56.611Z,94869.28
2023-01-26T19:25:42.417Z,94868.75
2023-01-26T19:28:27.934Z,94866.59
2023-01-26T19:31:13.867Z,94871.38
2023-01-26T19:34:00.366Z,94858.06
2023-01-26T19:36:47.113Z,94857.25
2023-01-26T19:39:32.628Z,94865.25
2023-01-26T19:42:18.689Z,94861.53
2023-01-26T19:45:04.191Z,94867.66
2023-01-26T19:47:50.345Z,94864.19
2023-01-26T19:50:35.838Z,94869.75
2023-01-26T19:53:21.709Z,94867.63
2023-01-26T19:56:07.201Z,94862.28
2023-01-26T19:58:56.907Z,94858.56
2023-01-26T20:01:42.871Z,94853.22
2023-01-26T20:04:28.429Z,94859.38
2023-01-26T20:07:13.784Z,94855.91
2023-01-26T20:09:59.399Z,94852.97
2023-01-26T20:12:45.414Z,94841.00
2023-01-26T20:15:30.896Z,94843.66
2023-01-26T20:18:16.745Z,94835.13
2023-01-26T20:21:02.686Z,94837.81
2023-01-26T20:23:54.287Z,94822.59
2023-01-26T20:26:43.474Z,94827.41
2023-01-26T20:29:29.387Z,94817.28
2023-01-26T20:32:14.832Z,94824.47
2023-01-26T20:35:00.931Z,94826.59
2023-01-26T20:37:46.563Z,94834.59
2023-01-26T20:40:32.216Z,94834.59
2023-01-26T20:43:17.765Z,94818.88
2023-01-26T20:46:10.638Z,94837.25
2023-01-26T20:48:56.416Z,94831.41
2023-01-26T20:51:42.806Z,94824.72
2023-01-26T20:54:28.651Z,94821.78
2023-01-26T20:57:14.311Z,94818.59
2023-01-26T21:00:02.097Z,94817.00
2023-01-26T21:02:48.681Z,94812.22
2023-01-26T21:05:34.275Z,94822.88
2023-01-26T21:08:20.178Z,94823.94
2023-01-26T21:11:08.147Z,94819.16
2023-01-26T21:13:58.196Z,94828.22
2023-01-26T21:16:44.253Z,94833.03
2023-01-26T21:19:30.094Z,94830.91
2023-01-26T21:22:15.830Z,94828.25
2023-01-26T21:25:01.517Z,94830.66
2023-01-26T21:27:47.031Z,94834.66
2023-01-26T21:30:32.600Z,94833.06
2023-01-26T21:33:18.528Z,94821.34
2023-01-26T21:36:05.937Z,94822.94
2023-01-26T21:38:53.366Z,94816.25
2023-01-26T21:45:53.058Z,94806.66
2023-01-26T21:48:39.405Z,94802.63
2023-01-26T21:51:44.359Z,94795.16
2023-01-26T21:54:30.196Z,94802.06
2023-01-26T21:57:34.520Z,94802.06
2023-01-26T22:00:20.758Z,94798.34
2023-01-26T22:03:06.294Z,94804.47
2023-01-26T22:05:53.401Z,94796.22
2023-01-26T22:08:38.760Z,94797.28
2023-01-26T22:11:24.657Z,94787.69
2023-01-26T22:14:18.391Z,94794.63
2023-01-26T22:17:04.533Z,94784.50
2023-01-26T22:19:50.283Z,94786.34
2023-01-26T22:22:35.576Z,94787.19
2023-01-26T22:25:21.268Z,94780.25
2023-01-26T22:28:06.830Z,94784.78
2023-01-26T22:30:52.388Z,94782.94
2023-01-26T22:33:37.804Z,94775.72
2023-01-26T22:36:23.848Z,94775.47
2023-01-26T22:39:09.799Z,94766.66
2023-01-26T22:41:56.157Z,94774.13
2023-01-26T22:44:43.449Z,94771.19
2023-01-26T22:47:29.302Z,94772.78
2023-01-26T22:50:15.205Z,94766.41
2023-01-26T22:53:00.777Z,94765.59
2023-01-26T22:55:50.286Z,94756.31
2023-01-26T22:58:47.665Z,94752.59
2023-01-26T23:01:37.205Z,94749.16
2023-01-26T23:04:24.225Z,94744.91
2023-01-26T23:07:09.546Z,94739.28
2023-01-26T23:09:55.109Z,94736.13
2023-01-26T23:12:40.773Z,94734.53
2023-01-26T23:15:27.141Z,94739.06
2023-01-26T23:18:12.657Z,94724.41
2023-01-26T23:20:58.703Z,94730.28
2023-01-26T23:23:44.107Z,94727.06
2023-01-26T23:26:30.102Z,94726.81
2023-01-26T23:29:15.658Z,94725.50
2023-01-26T23:32:01.544Z,94725.50
2023-01-26T23:34:47.232Z,94721.25
2023-01-26T23:37:33.047Z,94720.72
2023-01-26T23:40:18.893Z,94719.13
2023-01-26T23:43:16.192Z,94721.25
2023-01-26T23:46:03.419Z,94714.84
2023-01-26T23:48:48.880Z,94717.53
2023-01-26T23:51:34.501Z,94722.06
2023-01-26T23:54:20.349Z,94715.94
2023-01-26T23:57:06.019Z,94707.44
2023-01-26T23:59:51.555Z,94711.69
